createdAt,value
2019-05-19T00:02:08.411Z,4.67
2019-05-19T00:04:40.204Z,3.80
2019-05-19T00:07:11.962Z,3.47
2019-05-19T00:09:43.619Z,3.50
2019-05-19T00:12:15.371Z,4.58
2019-05-19T00:14:46.984Z,4.90
2019-05-19T00:17:18.247Z,4.62
2019-05-19T00:19:50.036Z,4.50
2019-05-19T00:22:21.685Z,4.10
2019-05-19T00:24:53.549Z,3.77
2019-05-19T00:27:25.144Z,3.85
2019-05-19T00:29:56.653Z,3.42
2019-05-19T00:32:28.306Z,2.90
2019-05-19T00:35:00.175Z,2.98
2019-05-19T00:37:32.986Z,2.67
2019-05-19T00:40:08.536Z,3.37
2019-05-19T00:42:40.559Z,3.20
2019-05-19T00:45:12.807Z,2.92
2019-05-19T00:47:44.210Z,2.92
2019-05-19T00:50:16.101Z,2.75
2019-05-19T00:52:47.593Z,3.50
2019-05-19T00:55:19.300Z,2.95
2019-05-19T00:57:51.510Z,3.10
2019-05-19T01:00:23.070Z,3.08
2019-05-19T01:02:55.002Z,2.67
2019-05-19T01:05:27.506Z,2.62
2019-05-19T01:07:59.463Z,2.50
2019-05-19T01:10:31.191Z,2.62
2019-05-19T01:13:03.388Z,2.62
2019-05-19T01:15:35.042Z,2.75
2019-05-19T01:18:07.115Z,2.70
2019-05-19T01:20:38.664Z,2.80
2019-05-19T01:23:10.520Z,2.75
2019-05-19T01:25:42.296Z,2.62
2019-05-19T01:28:14.039Z,3.10
2019-05-19T01:30:46.407Z,3.27
2019-05-19T01:33:18.059Z,3.15
2019-05-19T01:35:49.728Z,3.40
2019-05-19T01:38:21.377Z,3.35
2019-05-19T01:40:53.280Z,3.12
2019-05-19T01:43:25.116Z,4.85
2019-05-19T01:45:56.543Z,3.65
2019-05-19T01:48:28.309Z,3.02
2019-05-19T01:51:00.198Z,3.75
2019-05-19T01:53:32.325Z,3.55
2019-05-19T01:56:05.223Z,3.05
2019-05-19T01:58:36.663Z,3.30
2019-05-19T02:01:08.374Z,3.05
2019-05-19T02:03:40.181Z,2.87
2019-05-19T02:06:12.036Z,3.20
2019-05-19T02:08:43.809Z,3.02
2019-05-19T02:11:15.585Z,3.10
2019-05-19T02:13:46.796Z,3.20
2019-05-19T02:16:18.307Z,2.70
2019-05-19T02:18:51.126Z,2.92
2019-05-19T02:21:23.094Z,2.77
2019-05-19T02:23:54.959Z,2.70
2019-05-19T02:26:26.654Z,4.47
2019-05-19T02:28:59.103Z,3.25
2019-05-19T02:31:30.722Z,2.50
2019-05-19T02:34:02.495Z,2.27
2019-05-19T02:36:34.239Z,2.65
2019-05-19T02:39:07.093Z,2.40
2019-05-19T02:41:40.120Z,2.60
2019-05-19T02:44:11.985Z,2.30
2019-05-19T02:46:44.152Z,1.90
2019-05-19T02:49:17.346Z,1.92
2019-05-19T02:51:51.389Z,2.70
2019-05-19T02:54:24.303Z,2.35
2019-05-19T02:56:56.297Z,2.47
2019-05-19T02:59:29.089Z,2.87
2019-05-19T03:02:02.327Z,2.90
2019-05-19T03:04:34.156Z,2.80
2019-05-19T03:07:05.995Z,2.55
2019-05-19T03:09:37.869Z,2.50
2019-05-19T03:12:09.616Z,3.00
2019-05-19T03:14:41.374Z,2.95
2019-05-19T03:17:13.243Z,3.17
2019-05-19T03:19:44.796Z,3.52
2019-05-19T03:22:16.545Z,4.47
2019-05-19T03:24:48.413Z,4.05
2019-05-19T03:27:20.057Z,4.22
2019-05-19T03:29:53.453Z,5.00
2019-05-19T03:32:26.678Z,4.50
2019-05-19T03:34:58.353Z,5.20
2019-05-19T03:37:30.269Z,5.33
2019-05-19T03:40:04.221Z,5.33
2019-05-19T03:42:35.737Z,5.35
2019-05-19T03:45:07.587Z,4.78
2019-05-19T03:47:39.206Z,5.40
2019-05-19T03:50:11.102Z,5.67
2019-05-19T03:52:42.954Z,7.00
2019-05-19T03:55:15.202Z,6.50
2019-05-19T03:57:46.774Z,6.30
2019-05-19T04:00:18.846Z,6.30
2019-05-19T04:02:50.256Z,7.83
2019-05-19T04:05:21.948Z,11.15
2019-05-19T04:07:53.911Z,8.48
2019-05-19T04:10:26.745Z,7.72
2019-05-19T04:12:58.807Z,7.95
2019-05-19T04:15:30.442Z,7.28
2019-05-19T04:18:02.071Z,8.20
2019-05-19T04:20:33.755Z,7.40
2019-05-19T04:23:05.498Z,11.08
2019-05-19T04:25:37.555Z,12.07
2019-05-19T04:28:09.160Z,8.25
2019-05-19T04:30:40.855Z,8.80
2019-05-19T04:33:12.794Z,7.87
2019-05-19T04:35:44.478Z,9.83
2019-05-19T04:38:16.215Z,9.50
2019-05-19T04:40:47.773Z,7.25
2019-05-19T04:43:19.646Z,12.73
2019-05-19T04:45:52.726Z,12.80
2019-05-19T04:48:24.589Z,9.28
2019-05-19T04:50:56.220Z,7.80
2019-05-19T04:53:27.955Z,7.33
2019-05-19T04:55:59.961Z,9.55
2019-05-19T04:58:31.942Z,7.95
2019-05-19T05:01:03.886Z,8.53
2019-05-19T05:03:36.371Z,8.15
2019-05-19T05:06:08.423Z,8.38
2019-05-19T05:08:40.078Z,8.43
2019-05-19T05:11:11.467Z,7.78
2019-05-19T05:13:43.206Z,9.58
2019-05-19T05:16:14.859Z,7.85
2019-05-19T05:18:47.916Z,8.68
2019-05-19T05:21:19.482Z,7.53
2019-05-19T05:23:51.751Z,9.18
2019-05-19T05:26:23.687Z,8.08
2019-05-19T05:28:55.179Z,6.83
2019-05-19T05:31:27.135Z,7.75
2019-05-19T05:33:58.682Z,7.35
2019-05-19T05:36:30.848Z,6.80
2019-05-19T05:39:02.710Z,7.12
2019-05-19T05:41:34.387Z,7.22
2019-05-19T05:44:05.918Z,6.30
2019-05-19T05:46:37.680Z,6.65
2019-05-19T05:49:09.573Z,8.38
2019-05-19T05:51:40.940Z,7.47
2019-05-19T05:54:12.435Z,8.30
2019-05-19T05:56:44.143Z,10.80
2019-05-19T05:59:16.172Z,9.55
2019-05-19T06:01:47.809Z,11.22
2019-05-19T06:04:19.665Z,9.83
2019-05-19T06:06:51.660Z,7.15
2019-05-19T06:09:23.487Z,5.97
2019-05-19T06:11:54.939Z,7.85
2019-05-19T06:14:26.907Z,22.05
2019-05-19T06:16:58.460Z,4.90
2019-05-19T06:19:39.540Z,5.50
2019-05-19T06:22:11.082Z,4.70
2019-05-19T06:24:42.637Z,6.45
2019-05-19T06:27:14.306Z,5.40
2019-05-19T06:29:45.951Z,4.65
2019-05-19T06:32:22.005Z,5.37
2019-05-19T06:34:54.074Z,5.50
2019-05-19T06:37:25.946Z,5.08
2019-05-19T06:39:57.687Z,5.72
2019-05-19T06:42:29.248Z,5.40
2019-05-19T06:45:01.076Z,5.15
2019-05-19T06:47:33.588Z,6.67
2019-05-19T06:50:07.001Z,5.25
2019-05-19T06:52:38.632Z,4.37
2019-05-19T06:55:10.658Z,4.50
2019-05-19T06:57:42.034Z,4.03
2019-05-19T07:00:14.601Z,3.87
2019-05-19T07:02:45.983Z,4.35
2019-05-19T07:05:18.341Z,4.08
2019-05-19T07:07:49.988Z,4.33
2019-05-19T07:10:21.890Z,3.87
2019-05-19T07:12:53.611Z,4.12
2019-05-19T07:15:25.061Z,4.20
2019-05-19T07:17:56.819Z,3.90
2019-05-19T07:20:28.489Z,4.28
2019-05-19T07:23:00.026Z,3.27
2019-05-19T07:25:31.779Z,3.17
2019-05-19T07:28:04.565Z,3.90
2019-05-19T07:30:36.431Z,3.47
2019-05-19T07:33:08.299Z,3.15
2019-05-19T07:35:39.988Z,3.05
2019-05-19T07:38:11.724Z,3.27
2019-05-19T07:40:43.352Z,3.00
2019-05-19T07:43:14.929Z,2.92
2019-05-19T07:45:46.693Z,3.17
2019-05-19T07:48:18.111Z,3.20
2019-05-19T07:50:49.970Z,4.70
2019-05-19T07:53:21.569Z,3.30
2019-05-19T07:55:53.405Z,10.90
2019-05-19T07:58:25.142Z,3.70
2019-05-19T08:00:56.856Z,3.00
2019-05-19T08:03:28.658Z,3.55
2019-05-19T08:06:00.409Z,3.55
2019-05-19T08:08:32.330Z,2.58
2019-05-19T08:11:04.032Z,3.33
2019-05-19T08:13:35.691Z,3.08
2019-05-19T08:16:07.543Z,2.60
2019-05-19T08:18:39.211Z,3.00
2019-05-19T08:21:10.852Z,2.98
2019-05-19T08:23:56.841Z,2.70
2019-05-19T08:26:17.919Z,9.13
2019-05-19T08:28:49.466Z,3.22
2019-05-19T08:31:21.271Z,4.03
2019-05-19T08:33:52.839Z,3.45
2019-05-19T08:36:24.372Z,3.47
2019-05-19T08:38:56.139Z,4.50
2019-05-19T08:41:27.630Z,2.85
2019-05-19T08:43:59.131Z,3.40
2019-05-19T08:46:31.298Z,2.75
2019-05-19T08:49:02.952Z,3.22
2019-05-19T08:51:34.603Z,2.40
2019-05-19T08:54:14.401Z,6.83
2019-05-19T08:56:39.781Z,6.75
2019-05-19T08:59:11.450Z,3.70
2019-05-19T09:01:43.244Z,6.12
2019-05-19T09:04:15.985Z,3.27
2019-05-19T09:06:47.721Z,4.05
2019-05-19T09:09:19.471Z,3.52
2019-05-19T09:11:51.170Z,3.05
2019-05-19T09:14:22.899Z,3.90
2019-05-19T09:16:54.439Z,4.50
2019-05-19T09:19:26.203Z,5.53
2019-05-19T09:21:58.081Z,6.20
2019-05-19T09:24:31.095Z,8.05
2019-05-19T09:27:02.593Z,11.40
2019-05-19T09:29:35.930Z,6.80
2019-05-19T09:32:07.778Z,4.42
2019-05-19T09:34:39.193Z,4.37
2019-05-19T09:37:11.036Z,4.62
2019-05-19T09:39:42.363Z,5.22
2019-05-19T09:42:13.863Z,4.17
2019-05-19T09:44:45.311Z,4.22
2019-05-19T09:47:16.771Z,3.60
2019-05-19T09:49:48.515Z,3.90
2019-05-19T09:52:20.170Z,4.62
2019-05-19T09:54:51.637Z,4.28
2019-05-19T09:57:23.291Z,4.03
2019-05-19T09:59:55.056Z,5.85
2019-05-19T10:02:26.787Z,4.15
2019-05-19T10:04:58.470Z,3.70
2019-05-19T10:07:30.233Z,4.95
2019-05-19T10:10:03.607Z,3.85
2019-05-19T10:12:35.062Z,3.42
2019-05-19T10:15:07.392Z,3.15
2019-05-19T10:17:38.870Z,3.58
2019-05-19T10:20:10.939Z,3.00
2019-05-19T10:22:42.492Z,3.02
2019-05-19T10:25:22.054Z,3.22
2019-05-19T10:27:49.269Z,3.58
2019-05-19T10:30:20.655Z,3.95
2019-05-19T10:32:52.385Z,3.55
2019-05-19T10:35:24.309Z,4.60
2019-05-19T10:37:55.903Z,4.12
2019-05-19T10:40:27.520Z,3.40
2019-05-19T10:42:59.226Z,3.70
2019-05-19T10:45:30.773Z,4.15
2019-05-19T10:48:02.594Z,3.75
2019-05-19T10:50:34.291Z,3.70
2019-05-19T10:53:05.942Z,4.80
2019-05-19T10:55:37.594Z,3.77
2019-05-19T10:58:12.011Z,3.17
2019-05-19T11:00:43.465Z,4.22
2019-05-19T11:03:15.060Z,4.08
2019-05-19T11:05:46.769Z,3.40
2019-05-19T11:08:18.542Z,6.45
2019-05-19T11:10:50.624Z,8.35
2019-05-19T11:13:23.330Z,3.90
2019-05-19T11:15:55.030Z,2.45
2019-05-19T11:18:26.823Z,3.60
2019-05-19T11:20:58.667Z,3.75
2019-05-19T11:23:30.269Z,4.15
2019-05-19T11:26:01.654Z,3.20
2019-05-19T11:28:33.528Z,2.85
2019-05-19T11:31:05.066Z,3.12
2019-05-19T11:33:36.899Z,2.65
2019-05-19T11:36:08.897Z,2.72
2019-05-19T11:38:40.444Z,2.52
2019-05-19T11:41:12.262Z,7.17
2019-05-19T11:43:43.853Z,3.02
2019-05-19T11:46:15.618Z,2.72
2019-05-19T11:48:47.463Z,4.20
2019-05-19T11:51:19.132Z,3.30
2019-05-19T11:53:51.048Z,9.53
2019-05-19T11:56:22.776Z,4.22
2019-05-19T11:58:54.340Z,2.55
2019-05-19T12:01:25.943Z,3.65
2019-05-19T12:03:57.905Z,8.55
2019-05-19T12:06:39.491Z,6.35
2019-05-19T12:09:04.916Z,4.08
2019-05-19T12:11:37.588Z,2.20
2019-05-19T12:14:09.471Z,2.47
2019-05-19T12:16:41.073Z,3.12
2019-05-19T12:19:13.066Z,3.60
2019-05-19T12:21:44.820Z,3.42
2019-05-19T12:24:17.094Z,11.30
2019-05-19T12:26:48.549Z,3.20
2019-05-19T12:29:20.509Z,3.22
2019-05-19T12:31:52.158Z,2.40
2019-05-19T12:34:23.602Z,1.90
2019-05-19T12:36:54.955Z,2.90
2019-05-19T12:39:26.693Z,3.37
2019-05-19T12:41:58.477Z,2.60
2019-05-19T12:44:30.231Z,3.67
2019-05-19T12:47:02.008Z,2.52
2019-05-19T12:49:33.957Z,2.60
2019-05-19T12:52:05.406Z,3.05
2019-05-19T12:54:37.074Z,2.67
2019-05-19T12:57:09.130Z,2.75
2019-05-19T12:59:40.752Z,2.40
2019-05-19T13:02:12.232Z,2.75
2019-05-19T13:04:44.101Z,2.17
2019-05-19T13:07:15.844Z,3.08
2019-05-19T13:09:47.517Z,1.85
2019-05-19T13:12:19.167Z,2.47
2019-05-19T13:14:50.725Z,3.95
2019-05-19T13:17:22.464Z,2.37
2019-05-19T13:19:54.623Z,3.87
2019-05-19T13:22:26.207Z,2.27
2019-05-19T13:24:57.955Z,2.52
2019-05-19T13:27:29.699Z,2.30
2019-05-19T13:30:01.535Z,2.55
2019-05-19T13:32:33.419Z,2.27
2019-05-19T13:35:07.200Z,2.80
2019-05-19T13:37:40.206Z,3.83
2019-05-19T13:40:12.393Z,3.65
2019-05-19T13:42:44.154Z,3.60
2019-05-19T13:45:16.181Z,2.47
2019-05-19T13:47:48.062Z,2.50
2019-05-19T13:50:20.939Z,2.60
2019-05-19T13:52:52.494Z,2.20
2019-05-19T13:55:24.172Z,2.25
2019-05-19T13:57:55.800Z,2.25
2019-05-19T14:00:27.929Z,2.45
2019-05-19T14:02:59.419Z,1.92
2019-05-19T14:05:31.074Z,2.55
2019-05-19T14:08:02.853Z,2.55
2019-05-19T14:10:34.494Z,2.17
2019-05-19T14:13:06.246Z,3.55
2019-05-19T14:15:37.926Z,3.40
2019-05-19T14:18:09.476Z,2.20
2019-05-19T14:20:41.259Z,2.37
2019-05-19T14:23:12.548Z,2.33
2019-05-19T14:25:44.074Z,2.62
2019-05-19T14:28:15.502Z,3.33
2019-05-19T14:30:47.013Z,3.62
2019-05-19T14:33:18.406Z,3.95
2019-05-19T14:35:49.847Z,3.42
2019-05-19T14:38:21.483Z,3.50
2019-05-19T14:40:53.325Z,2.75
2019-05-19T14:43:26.517Z,31.62
2019-05-19T14:45:58.234Z,29.60
2019-05-19T14:48:29.936Z,11.40
2019-05-19T14:51:01.898Z,4.90
2019-05-19T14:53:34.696Z,6.03
2019-05-19T14:56:06.740Z,9.25
2019-05-19T14:58:38.265Z,5.28
2019-05-19T15:01:10.369Z,4.62
2019-05-19T15:03:42.013Z,4.62
2019-05-19T15:06:13.712Z,8.15
2019-05-19T15:08:45.530Z,4.12
2019-05-19T15:11:17.310Z,4.20
2019-05-19T15:13:49.861Z,4.08
2019-05-19T15:16:21.671Z,3.42
2019-05-19T15:18:53.287Z,3.15
2019-05-19T15:21:25.263Z,4.28
2019-05-19T15:23:57.064Z,3.42
2019-05-19T15:26:28.594Z,3.08
2019-05-19T15:29:00.566Z,2.85
2019-05-19T15:31:32.084Z,4.37
2019-05-19T15:34:03.481Z,2.90
2019-05-19T15:36:35.067Z,4.25
2019-05-19T15:39:07.136Z,3.27
2019-05-19T15:41:38.805Z,2.92
2019-05-19T15:44:10.548Z,3.65
2019-05-19T15:46:43.310Z,3.52
2019-05-19T15:49:18.191Z,20.55
2019-05-19T15:52:01.535Z,5.22
2019-05-19T15:54:33.359Z,5.28
2019-05-19T15:57:09.257Z,4.20
2019-05-19T15:59:44.529Z,2.42
2019-05-19T16:02:21.194Z,4.37
2019-05-19T16:05:00.156Z,3.52
2019-05-19T16:07:33.583Z,3.10
2019-05-19T16:10:09.949Z,2.10
2019-05-19T16:12:42.520Z,2.45
2019-05-19T16:15:16.943Z,3.05
2019-05-19T16:17:49.705Z,2.87
2019-05-19T16:20:22.582Z,3.40
2019-05-19T16:22:56.270Z,3.37
2019-05-19T16:25:29.538Z,3.92
2019-05-19T16:28:05.142Z,3.75
2019-05-19T16:30:38.491Z,3.00
2019-05-19T16:33:10.115Z,3.17
2019-05-19T16:35:43.087Z,3.30
2019-05-19T16:38:15.008Z,3.12
2019-05-19T16:40:46.659Z,3.30
2019-05-19T16:43:18.454Z,3.10
2019-05-19T16:45:50.278Z,3.05
2019-05-19T16:48:23.480Z,3.40
2019-05-19T16:50:55.127Z,2.77
2019-05-19T16:53:26.937Z,2.42
2019-05-19T16:55:58.617Z,8.95
2019-05-19T16:58:43.072Z,12.90
2019-05-19T17:01:04.921Z,3.83
2019-05-19T17:03:37.597Z,3.50
2019-05-19T17:06:09.160Z,2.80
2019-05-19T17:08:41.140Z,2.90
2019-05-19T17:11:18.236Z,5.40
2019-05-19T17:13:46.297Z,5.60
2019-05-19T17:16:18.053Z,5.28
2019-05-19T17:18:49.758Z,3.67
2019-05-19T17:21:21.667Z,3.98
2019-05-19T17:23:53.404Z,2.85
2019-05-19T17:26:25.294Z,4.58
2019-05-19T17:29:00.626Z,7.25
2019-05-19T17:31:30.074Z,6.03
2019-05-19T17:34:03.293Z,3.42
2019-05-19T17:36:34.781Z,24.82
2019-05-19T17:39:07.556Z,3.60
2019-05-19T17:41:39.084Z,3.90
2019-05-19T17:44:10.685Z,7.17
2019-05-19T17:46:42.497Z,4.92
2019-05-19T17:49:14.226Z,3.55
2019-05-19T17:51:45.803Z,3.58
2019-05-19T17:54:20.145Z,3.77
2019-05-19T17:56:53.166Z,10.38
2019-05-19T17:59:26.132Z,5.53
2019-05-19T18:01:57.861Z,4.30
2019-05-19T18:04:30.364Z,7.03
2019-05-19T18:07:02.134Z,5.85
2019-05-19T18:09:34.145Z,3.42
2019-05-19T18:12:05.974Z,4.67
2019-05-19T18:14:37.464Z,3.70
2019-05-19T18:17:09.123Z,3.22
2019-05-19T18:19:41.166Z,3.47
2019-05-19T18:22:12.942Z,4.35
2019-05-19T18:24:44.655Z,5.37
2019-05-19T18:27:16.246Z,3.40
2019-05-19T18:29:47.821Z,3.55
2019-05-19T18:32:19.265Z,4.47
2019-05-19T18:34:51.111Z,3.92
2019-05-19T18:37:22.898Z,4.25
2019-05-19T18:39:54.304Z,3.80
2019-05-19T18:42:25.785Z,4.45
2019-05-19T18:44:57.734Z,4.35
2019-05-19T18:47:29.393Z,6.92
2019-05-19T18:50:01.266Z,5.22
2019-05-19T18:52:33.048Z,6.12
2019-05-19T18:55:07.038Z,8.68
2019-05-19T18:57:38.462Z,9.38
2019-05-19T19:00:10.638Z,9.63
2019-05-19T19:02:42.492Z,5.67
2019-05-19T19:05:14.383Z,5.72
2019-05-19T19:07:50.523Z,6.25
2019-05-19T19:10:22.101Z,5.33
2019-05-19T19:12:53.920Z,7.17
2019-05-19T19:15:25.491Z,9.58
2019-05-19T19:17:57.036Z,7.70
2019-05-19T19:20:28.886Z,6.50
2019-05-19T19:23:00.687Z,6.50
2019-05-19T19:25:32.323Z,5.92
2019-05-19T19:28:03.657Z,6.87
2019-05-19T19:30:35.337Z,7.37
2019-05-19T19:33:07.169Z,7.92
2019-05-19T19:35:39.837Z,6.90
2019-05-19T19:38:11.341Z,7.05
2019-05-19T19:40:42.891Z,6.87
2019-05-19T19:43:14.640Z,8.90
2019-05-19T19:45:46.514Z,7.85
2019-05-19T19:48:18.221Z,9.20
2019-05-19T19:50:51.826Z,10.15
2019-05-19T19:53:25.023Z,7.62
2019-05-19T19:55:56.575Z,8.60
2019-05-19T19:58:28.325Z,7.80
2019-05-19T20:01:00.806Z,7.40
2019-05-19T20:03:32.470Z,7.40
2019-05-19T20:06:04.143Z,7.12
2019-05-19T20:08:36.078Z,7.42
2019-05-19T20:11:08.040Z,7.75
2019-05-19T20:13:39.998Z,7.25
2019-05-19T20:16:11.935Z,6.72
2019-05-19T20:18:43.444Z,6.97
2019-05-19T20:21:15.275Z,8.03
2019-05-19T20:23:46.721Z,10.78
2019-05-19T20:26:18.954Z,8.40
2019-05-19T20:28:50.853Z,8.03
2019-05-19T20:31:22.956Z,7.15
2019-05-19T20:33:54.776Z,6.83
2019-05-19T20:36:26.609Z,6.53
2019-05-19T20:38:58.312Z,5.85
2019-05-19T20:41:30.377Z,6.17
2019-05-19T20:44:01.911Z,6.22
2019-05-19T20:46:33.516Z,6.85
2019-05-19T20:49:05.947Z,5.75
2019-05-19T20:51:37.764Z,4.40
2019-05-19T20:54:09.649Z,5.40
2019-05-19T20:56:41.376Z,4.55
2019-05-19T20:59:13.117Z,5.08
2019-05-19T21:01:45.140Z,5.42
2019-05-19T21:04:17.829Z,4.95
2019-05-19T21:06:49.706Z,7.80
2019-05-19T21:09:21.544Z,5.53
2019-05-19T21:11:53.182Z,5.75
2019-05-19T21:14:25.041Z,6.03
2019-05-19T21:16:57.031Z,5.60
2019-05-19T21:19:28.872Z,5.28
2019-05-19T21:22:00.523Z,6.47
2019-05-19T21:24:32.406Z,6.03
2019-05-19T21:27:04.248Z,5.35
2019-05-19T21:29:36.207Z,5.08
2019-05-19T21:32:08.162Z,4.75
2019-05-19T21:34:39.637Z,4.05
2019-05-19T21:37:11.194Z,4.22
2019-05-19T21:39:43.032Z,4.42
2019-05-19T21:42:16.047Z,3.95
2019-05-19T21:44:47.769Z,3.60
2019-05-19T21:47:19.676Z,3.55
2019-05-19T21:49:51.389Z,4.08
2019-05-19T21:52:23.210Z,4.30
2019-05-19T21:54:55.218Z,4.15
2019-05-19T21:57:26.731Z,3.25
2019-05-19T21:59:58.220Z,4.10
2019-05-19T22:02:30.358Z,3.25
2019-05-19T22:05:02.143Z,3.90
2019-05-19T22:07:52.921Z,4.12
2019-05-19T22:10:24.349Z,3.75
2019-05-19T22:12:56.284Z,4.05
2019-05-19T22:15:28.013Z,4.58
2019-05-19T22:18:00.000Z,4.92
2019-05-19T22:20:31.857Z,4.78
2019-05-19T22:23:03.489Z,5.53
2019-05-19T22:25:35.233Z,5.17
2019-05-19T22:28:07.106Z,5.60
2019-05-19T22:30:39.175Z,6.53
2019-05-19T22:33:10.829Z,8.30
2019-05-19T22:35:42.586Z,7.28
2019-05-19T22:38:14.020Z,7.87
2019-05-19T22:40:45.488Z,9.93
2019-05-19T22:43:17.371Z,9.85
2019-05-19T22:45:49.311Z,8.28
2019-05-19T22:48:20.889Z,7.87
2019-05-19T22:50:53.256Z,9.35
2019-05-19T22:53:24.789Z,15.53
2019-05-19T22:55:56.647Z,9.60
2019-05-19T22:58:28.924Z,10.43
2019-05-19T23:01:00.877Z,8.55
2019-05-19T23:03:32.404Z,8.53
2019-05-19T23:06:04.320Z,9.60
2019-05-19T23:08:37.433Z,9.18
2019-05-19T23:11:09.239Z,9.95
2019-05-19T23:13:41.054Z,10.60
2019-05-19T23:16:12.678Z,11.38
2019-05-19T23:18:44.736Z,11.22
2019-05-19T23:21:16.276Z,12.68
2019-05-19T23:23:49.437Z,13.43
2019-05-19T23:26:21.333Z,14.70
2019-05-19T23:28:53.798Z,14.98
2019-05-19T23:31:25.485Z,16.67
2019-05-19T23:33:57.553Z,17.87
2019-05-19T23:36:29.557Z,18.25
2019-05-19T23:39:01.271Z,18.35
2019-05-19T23:41:33.297Z,19.82
2019-05-19T23:44:05.397Z,20.75
2019-05-19T23:46:37.236Z,20.60
2019-05-19T23:49:09.287Z,20.70
2019-05-19T23:51:41.661Z,20.08
2019-05-19T23:54:13.744Z,21.30
2019-05-19T23:56:46.947Z,20.10
2019-05-19T23:59:18.710Z,20.70
